sensor_id;sensor_type;location;lat;lon;timestamp;temperature;humidity
43946;DHT22;29599;51.196;4.428;2022-11-15T00:01:40;9.50;99.90
43946;DHT22;29599;51.196;4.428;2022-11-15T00:04:06;9.50;99.90
43946;DHT22;29599;51.196;4.428;2022-11-15T00:06:32;9.40;99.90
43946;DHT22;29599;51.196;4.428;2022-11-15T00:08:58;9.50;99.90
43946;DHT22;29599;51.196;4.428;2022-11-15T00:11:24;9.50;99.90
43946;DHT22;29599;51.196;4.428;2022-11-15T00:13:50;9.50;99.90
43946;DHT22;29599;51.196;4.428;2022-11-15T00:16:16;9.50;99.90
43946;DHT22;29599;51.196;4.428;2022-11-15T00:18:41;9.60;99.90
43946;DHT22;29599;51.196;4.428;2022-11-15T00:21:11;9.60;99.90
43946;DHT22;29599;51.196;4.428;2022-11-15T00:23:37;9.60;99.90
43946;DHT22;29599;51.196;4.428;2022-11-15T00:26:03;9.60;99.90
43946;DHT22;29599;51.196;4.428;2022-11-15T00:28:29;9.60;99.90
43946;DHT22;29599;51.196;4.428;2022-11-15T00:31:00;9.70;99.90
43946;DHT22;29599;51.196;4.428;2022-11-15T00:33:26;9.70;99.90
43946;DHT22;29599;51.196;4.428;2022-11-15T00:35:52;9.70;99.90
43946;DHT22;29599;51.196;4.428;2022-11-15T00:38:17;9.80;99.90
43946;DHT22;29599;51.196;4.428;2022-11-15T00:40:43;9.80;99.90
43946;DHT22;29599;51.196;4.428;2022-11-15T00:43:08;9.80;99.90
43946;DHT22;29599;51.196;4.428;2022-11-15T00:45:34;9.90;99.90
43946;DHT22;29599;51.196;4.428;2022-11-15T00:47:59;9.90;99.90
43946;DHT22;29599;51.196;4.428;2022-11-15T00:50:25;10.00;99.90
43946;DHT22;29599;51.196;4.428;2022-11-15T00:52:50;10.10;99.90
43946;DHT22;29599;51.196;4.428;2022-11-15T00:55:17;10.20;99.90
43946;DHT22;29599;51.196;4.428;2022-11-15T00:57:43;10.30;99.90
43946;DHT22;29599;51.196;4.428;2022-11-15T01:00:10;10.40;99.90
43946;DHT22;29599;51.196;4.428;2022-11-15T01:02:35;10.40;99.90
43946;DHT22;29599;51.196;4.428;2022-11-15T01:05:01;10.40;99.90
43946;DHT22;29599;51.196;4.428;2022-11-15T01:07:27;10.50;99.90
43946;DHT22;29599;51.196;4.428;2022-11-15T01:09:52;10.50;99.90
43946;DHT22;29599;51.196;4.428;2022-11-15T01:12:18;10.50;99.90
43946;DHT22;29599;51.196;4.428;2022-11-15T01:14:43;10.50;99.90
43946;DHT22;29599;51.196;4.428;2022-11-15T01:17:09;10.60;99.90
43946;DHT22;29599;51.196;4.428;2022-11-15T01:19:34;10.60;99.90
43946;DHT22;29599;51.196;4.428;2022-11-15T01:22:00;10.60;99.90
43946;DHT22;29599;51.196;4.428;2022-11-15T01:24:27;10.70;99.90
43946;DHT22;29599;51.196;4.428;2022-11-15T01:26:53;10.70;99.90
43946;DHT22;29599;51.196;4.428;2022-11-15T01:29:18;10.70;99.90
43946;DHT22;29599;51.196;4.428;2022-11-15T01:31:44;10.70;99.90
43946;DHT22;29599;51.196;4.428;2022-11-15T01:34:09;10.70;99.90
43946;DHT22;29599;51.196;4.428;2022-11-15T01:36:35;10.70;99.90
43946;DHT22;29599;51.196;4.428;2022-11-15T01:39:01;10.70;99.90
43946;DHT22;29599;51.196;4.428;2022-11-15T01:41:29;10.70;99.90
43946;DHT22;29599;51.196;4.428;2022-11-15T01:44:25;10.70;99.90
43946;DHT22;29599;51.196;4.428;2022-11-15T01:46:46;10.70;99.90
43946;DHT22;29599;51.196;4.428;2022-11-15T01:49:16;10.80;99.90
43946;DHT22;29599;51.196;4.428;2022-11-15T01:51:43;10.70;99.90
43946;DHT22;29599;51.196;4.428;2022-11-15T01:54:12;10.80;99.90
43946;DHT22;29599;51.196;4.428;2022-11-15T01:56:55;10.80;99.90
43946;DHT22;29599;51.196;4.428;2022-11-15T01:59:23;10.80;99.90
43946;DHT22;29599;51.196;4.428;2022-11-15T02:01:49;10.80;99.90
43946;DHT22;29599;51.196;4.428;2022-11-15T02:04:26;10.80;99.90
43946;DHT22;29599;51.196;4.428;2022-11-15T02:06:53;10.80;99.90
43946;DHT22;29599;51.196;4.428;2022-11-15T02:09:19;10.90;99.90
43946;DHT22;29599;51.196;4.428;2022-11-15T02:11:45;10.80;99.90
43946;DHT22;29599;51.196;4.428;2022-11-15T02:14:12;10.90;99.90
43946;DHT22;29599;51.196;4.428;2022-11-15T02:33:12;10.90;99.90
43946;DHT22;29599;51.196;4.428;2022-11-15T02:35:44;10.90;99.90
43946;DHT22;29599;51.196;4.428;2022-11-15T02:41:13;10.90;99.90
43946;DHT22;29599;51.196;4.428;2022-11-15T02:43:53;10.90;99.90
43946;DHT22;29599;51.196;4.428;2022-11-15T02:49:32;11.00;99.90
43946;DHT22;29599;51.196;4.428;2022-11-15T02:51:58;11.00;99.90
43946;DHT22;29599;51.196;4.428;2022-11-15T02:54:31;11.00;99.90
43946;DHT22;29599;51.196;4.428;2022-11-15T02:57:04;11.00;99.90
43946;DHT22;29599;51.196;4.428;2022-11-15T03:07:53;11.00;99.90
43946;DHT22;29599;51.196;4.428;2022-11-15T03:13:36;11.00;99.90
43946;DHT22;29599;51.196;4.428;2022-11-15T03:16:21;11.00;99.90
43946;DHT22;29599;51.196;4.428;2022-11-15T03:18:57;11.00;99.90
43946;DHT22;29599;51.196;4.428;2022-11-15T03:21:24;11.00;99.90
43946;DHT22;29599;51.196;4.428;2022-11-15T03:23:54;11.00;99.90
43946;DHT22;29599;51.196;4.428;2022-11-15T03:26:23;11.00;99.90
43946;DHT22;29599;51.196;4.428;2022-11-15T03:28:57;11.00;99.90
43946;DHT22;29599;51.196;4.428;2022-11-15T03:31:30;11.00;99.90
43946;DHT22;29599;51.196;4.428;2022-11-15T03:36:43;11.00;99.90
43946;DHT22;29599;51.196;4.428;2022-11-15T03:39:10;11.00;99.90
43946;DHT22;29599;51.196;4.428;2022-11-15T03:47:29;11.00;99.90
43946;DHT22;29599;51.196;4.428;2022-11-15T03:50:07;11.00;99.90
43946;DHT22;29599;51.196;4.428;2022-11-15T03:52:34;11.00;99.90
43946;DHT22;29599;51.196;4.428;2022-11-15T03:55:02;11.00;99.90
43946;DHT22;29599;51.196;4.428;2022-11-15T03:57:29;11.00;99.90
43946;DHT22;29599;51.196;4.428;2022-11-15T03:59:54;11.00;99.90
43946;DHT22;29599;51.196;4.428;2022-11-15T04:02:20;11.00;99.90
43946;DHT22;29599;51.196;4.428;2022-11-15T04:04:45;11.00;99.90
43946;DHT22;29599;51.196;4.428;2022-11-15T04:07:11;11.00;99.90
43946;DHT22;29599;51.196;4.428;2022-11-15T04:09:37;11.00;99.90
43946;DHT22;29599;51.196;4.428;2022-11-15T04:12:21;11.00;99.90
43946;DHT22;29599;51.196;4.428;2022-11-15T04:15:09;11.00;99.90
43946;DHT22;29599;51.196;4.428;2022-11-15T04:17:37;10.90;99.90
43946;DHT22;29599;51.196;4.428;2022-11-15T04:20:05;11.00;99.90
43946;DHT22;29599;51.196;4.428;2022-11-15T04:22:53;11.00;99.90
43946;DHT22;29599;51.196;4.428;2022-11-15T04:25:37;10.90;99.90
43946;DHT22;29599;51.196;4.428;2022-11-15T04:28:03;10.90;99.90
43946;DHT22;29599;51.196;4.428;2022-11-15T04:30:28;10.90;99.90
43946;DHT22;29599;51.196;4.428;2022-11-15T04:32:54;10.90;99.90
43946;DHT22;29599;51.196;4.428;2022-11-15T04:35:19;10.90;99.90
43946;DHT22;29599;51.196;4.428;2022-11-15T04:37:45;10.90;99.90
43946;DHT22;29599;51.196;4.428;2022-11-15T04:40:11;10.90;99.90
43946;DHT22;29599;51.196;4.428;2022-11-15T04:42:36;10.90;99.90
43946;DHT22;29599;51.196;4.428;2022-11-15T04:45:02;10.90;99.90
43946;DHT22;29599;51.196;4.428;2022-11-15T04:47:28;10.90;99.90
43946;DHT22;29599;51.196;4.428;2022-11-15T04:49:54;10.90;99.90
43946;DHT22;29599;51.196;4.428;2022-11-15T04:52:20;10.80;99.90
43946;DHT22;29599;51.196;4.428;2022-11-15T04:54:46;10.90;99.90
43946;DHT22;29599;51.196;4.428;2022-11-15T04:57:11;10.80;99.90
43946;DHT22;29599;51.196;4.428;2022-11-15T04:59:37;10.90;99.90
43946;DHT22;29599;51.196;4.428;2022-11-15T05:02:02;10.80;99.90
43946;DHT22;29599;51.196;4.428;2022-11-15T05:04:28;10.80;99.90
43946;DHT22;29599;51.196;4.428;2022-11-15T05:06:53;10.80;99.90
43946;DHT22;29599;51.196;4.428;2022-11-15T05:09:20;10.80;99.90
43946;DHT22;29599;51.196;4.428;2022-11-15T05:11:46;10.80;99.90
43946;DHT22;29599;51.196;4.428;2022-11-15T05:14:12;10.80;99.90
43946;DHT22;29599;51.196;4.428;2022-11-15T05:16:38;10.80;99.90
43946;DHT22;29599;51.196;4.428;2022-11-15T05:19:04;10.80;99.90
43946;DHT22;29599;51.196;4.428;2022-11-15T05:21:30;10.80;99.90
43946;DHT22;29599;51.196;4.428;2022-11-15T05:23:56;10.80;99.90
43946;DHT22;29599;51.196;4.428;2022-11-15T05:26:22;10.80;99.90
43946;DHT22;29599;51.196;4.428;2022-11-15T05:28:53;10.70;99.90
43946;DHT22;29599;51.196;4.428;2022-11-15T05:31:19;10.80;99.90
43946;DHT22;29599;51.196;4.428;2022-11-15T05:33:45;10.80;99.90
43946;DHT22;29599;51.196;4.428;2022-11-15T05:38:36;10.70;99.90
43946;DHT22;29599;51.196;4.428;2022-11-15T05:41:03;10.70;99.90
43946;DHT22;29599;51.196;4.428;2022-11-15T05:43:30;10.60;99.90
43946;DHT22;29599;51.196;4.428;2022-11-15T05:45:59;10.60;99.90
43946;DHT22;29599;51.196;4.428;2022-11-15T05:48:25;10.60;99.90
43946;DHT22;29599;51.196;4.428;2022-11-15T05:50:51;10.60;99.90
43946;DHT22;29599;51.196;4.428;2022-11-15T05:53:19;10.60;99.90
43946;DHT22;29599;51.196;4.428;2022-11-15T05:55:46;10.60;99.90
43946;DHT22;29599;51.196;4.428;2022-11-15T05:58:12;10.60;99.90
43946;DHT22;29599;51.196;4.428;2022-11-15T06:00:38;10.60;99.90
43946;DHT22;29599;51.196;4.428;2022-11-15T06:03:04;10.60;99.90
43946;DHT22;29599;51.196;4.428;2022-11-15T06:05:30;10.60;99.90
43946;DHT22;29599;51.196;4.428;2022-11-15T06:07:58;10.60;99.90
43946;DHT22;29599;51.196;4.428;2022-11-15T06:10:24;10.60;99.90
43946;DHT22;29599;51.196;4.428;2022-11-15T06:13:00;10.60;99.90
43946;DHT22;29599;51.196;4.428;2022-11-15T06:15:26;10.60;99.90
43946;DHT22;29599;51.196;4.428;2022-11-15T06:17:52;10.50;99.90
43946;DHT22;29599;51.196;4.428;2022-11-15T06:20:17;10.50;99.90
43946;DHT22;29599;51.196;4.428;2022-11-15T06:22:43;10.50;99.90
43946;DHT22;29599;51.196;4.428;2022-11-15T06:25:09;10.50;99.90
43946;DHT22;29599;51.196;4.428;2022-11-15T06:27:34;10.50;99.90
43946;DHT22;29599;51.196;4.428;2022-11-15T06:30:00;10.50;99.90
43946;DHT22;29599;51.196;4.428;2022-11-15T06:32:25;10.50;99.90
43946;DHT22;29599;51.196;4.428;2022-11-15T06:34:51;10.40;99.90
43946;DHT22;29599;51.196;4.428;2022-11-15T06:37:17;10.40;99.90
43946;DHT22;29599;51.196;4.428;2022-11-15T06:39:42;10.40;99.90
43946;DHT22;29599;51.196;4.428;2022-11-15T06:42:08;10.40;99.90
43946;DHT22;29599;51.196;4.428;2022-11-15T06:44:34;10.40;99.90
43946;DHT22;29599;51.196;4.428;2022-11-15T06:47:00;10.40;99.90
43946;DHT22;29599;51.196;4.428;2022-11-15T06:49:25;10.40;99.90
43946;DHT22;29599;51.196;4.428;2022-11-15T06:51:51;10.40;99.90
43946;DHT22;29599;51.196;4.428;2022-11-15T06:54:16;10.40;99.90
43946;DHT22;29599;51.196;4.428;2022-11-15T06:56:42;10.30;99.90
43946;DHT22;29599;51.196;4.428;2022-11-15T06:59:07;10.30;99.90
43946;DHT22;29599;51.196;4.428;2022-11-15T07:01:33;10.30;99.90
43946;DHT22;29599;51.196;4.428;2022-11-15T07:03:58;10.30;99.90
43946;DHT22;29599;51.196;4.428;2022-11-15T07:06:24;10.20;99.90
43946;DHT22;29599;51.196;4.428;2022-11-15T07:08:50;10.20;99.90
43946;DHT22;29599;51.196;4.428;2022-11-15T07:11:15;10.20;99.90
43946;DHT22;29599;51.196;4.428;2022-11-15T07:13:41;10.20;99.90
43946;DHT22;29599;51.196;4.428;2022-11-15T07:16:09;10.20;99.90
43946;DHT22;29599;51.196;4.428;2022-11-15T07:18:36;10.20;99.90
43946;DHT22;29599;51.196;4.428;2022-11-15T07:21:06;10.10;99.90
43946;DHT22;29599;51.196;4.428;2022-11-15T07:23:32;10.10;99.90
43946;DHT22;29599;51.196;4.428;2022-11-15T07:25:58;10.10;99.90
43946;DHT22;29599;51.196;4.428;2022-11-15T07:28:25;10.10;99.90
43946;DHT22;29599;51.196;4.428;2022-11-15T07:30:51;10.10;99.90
43946;DHT22;29599;51.196;4.428;2022-11-15T07:33:16;10.10;99.90
43946;DHT22;29599;51.196;4.428;2022-11-15T07:35:42;10.10;99.90
43946;DHT22;29599;51.196;4.428;2022-11-15T07:38:08;10.10;99.90
43946;DHT22;29599;51.196;4.428;2022-11-15T07:40:34;10.10;99.90
43946;DHT22;29599;51.196;4.428;2022-11-15T07:43:05;10.10;99.90
43946;DHT22;29599;51.196;4.428;2022-11-15T07:45:31;10.20;99.90
43946;DHT22;29599;51.196;4.428;2022-11-15T07:47:59;10.10;99.90
43946;DHT22;29599;51.196;4.428;2022-11-15T07:50:25;10.10;99.90
43946;DHT22;29599;51.196;4.428;2022-11-15T07:52:58;10.20;99.90
43946;DHT22;29599;51.196;4.428;2022-11-15T07:55:25;10.10;99.90
43946;DHT22;29599;51.196;4.428;2022-11-15T07:57:51;10.20;99.90
43946;DHT22;29599;51.196;4.428;2022-11-15T08:00:17;10.10;99.90
43946;DHT22;29599;51.196;4.428;2022-11-15T08:02:43;10.10;99.90
43946;DHT22;29599;51.196;4.428;2022-11-15T08:05:09;10.10;99.90
43946;DHT22;29599;51.196;4.428;2022-11-15T08:07:34;10.20;99.90
43946;DHT22;29599;51.196;4.428;2022-11-15T08:10:00;10.20;99.90
43946;DHT22;29599;51.196;4.428;2022-11-15T08:12:27;10.20;99.90
43946;DHT22;29599;51.196;4.428;2022-11-15T08:14:54;10.20;99.90
43946;DHT22;29599;51.196;4.428;2022-11-15T08:17:21;10.20;99.90
43946;DHT22;29599;51.196;4.428;2022-11-15T08:19:47;10.20;99.90
43946;DHT22;29599;51.196;4.428;2022-11-15T08:22:13;10.20;99.90
43946;DHT22;29599;51.196;4.428;2022-11-15T08:24:39;10.30;99.90
43946;DHT22;29599;51.196;4.428;2022-11-15T08:27:04;10.30;99.90
43946;DHT22;29599;51.196;4.428;2022-11-15T08:29:30;10.30;99.90
43946;DHT22;29599;51.196;4.428;2022-11-15T08:31:56;10.30;99.90
43946;DHT22;29599;51.196;4.428;2022-11-15T08:34:22;10.30;99.90
43946;DHT22;29599;51.196;4.428;2022-11-15T08:36:47;10.40;99.90
43946;DHT22;29599;51.196;4.428;2022-11-15T08:39:13;10.40;99.90
43946;DHT22;29599;51.196;4.428;2022-11-15T08:41:39;10.40;99.90
43946;DHT22;29599;51.196;4.428;2022-11-15T08:44:04;10.40;99.90
43946;DHT22;29599;51.196;4.428;2022-11-15T08:46:30;10.40;99.90
43946;DHT22;29599;51.196;4.428;2022-11-15T08:48:56;10.40;99.90
43946;DHT22;29599;51.196;4.428;2022-11-15T08:51:21;10.50;99.90
43946;DHT22;29599;51.196;4.428;2022-11-15T08:53:47;10.50;99.90
43946;DHT22;29599;51.196;4.428;2022-11-15T08:56:14;10.50;99.90
43946;DHT22;29599;51.196;4.428;2022-11-15T08:58:40;10.50;99.90
43946;DHT22;29599;51.196;4.428;2022-11-15T09:01:15;10.50;99.90
43946;DHT22;29599;51.196;4.428;2022-11-15T09:03:41;10.60;99.90
43946;DHT22;29599;51.196;4.428;2022-11-15T09:06:06;10.60;99.90
43946;DHT22;29599;51.196;4.428;2022-11-15T09:08:32;10.70;99.90
43946;DHT22;29599;51.196;4.428;2022-11-15T09:10:58;10.70;99.90
43946;DHT22;29599;51.196;4.428;2022-11-15T09:13:23;10.80;99.90
43946;DHT22;29599;51.196;4.428;2022-11-15T09:15:49;10.80;99.90
43946;DHT22;29599;51.196;4.428;2022-11-15T09:18:14;10.90;99.90
43946;DHT22;29599;51.196;4.428;2022-11-15T09:20:40;11.00;99.90
43946;DHT22;29599;51.196;4.428;2022-11-15T09:23:05;11.10;99.90
43946;DHT22;29599;51.196;4.428;2022-11-15T09:25:32;11.10;99.90
43946;DHT22;29599;51.196;4.428;2022-11-15T09:27:58;11.20;99.90
43946;DHT22;29599;51.196;4.428;2022-11-15T09:30:24;11.30;99.90
43946;DHT22;29599;51.196;4.428;2022-11-15T09:32:50;11.40;99.90
43946;DHT22;29599;51.196;4.428;2022-11-15T09:35:16;11.50;99.90
43946;DHT22;29599;51.196;4.428;2022-11-15T09:37:42;11.50;99.90
43946;DHT22;29599;51.196;4.428;2022-11-15T09:40:11;11.50;99.90
43946;DHT22;29599;51.196;4.428;2022-11-15T09:42:57;11.40;99.90
43946;DHT22;29599;51.196;4.428;2022-11-15T09:51:33;11.20;99.90
43946;DHT22;29599;51.196;4.428;2022-11-15T09:54:21;11.20;99.90
43946;DHT22;29599;51.196;4.428;2022-11-15T09:56:48;11.30;99.90
43946;DHT22;29599;51.196;4.428;2022-11-15T09:59:40;11.40;99.90
43946;DHT22;29599;51.196;4.428;2022-11-15T10:05:11;11.50;99.90
43946;DHT22;29599;51.196;4.428;2022-11-15T10:07:50;11.50;99.90
43946;DHT22;29599;51.196;4.428;2022-11-15T10:12:54;11.60;99.90
43946;DHT22;29599;51.196;4.428;2022-11-15T10:15:21;11.60;99.90
43946;DHT22;29599;51.196;4.428;2022-11-15T10:18:17;11.70;99.90
43946;DHT22;29599;51.196;4.428;2022-11-15T10:20:51;11.70;99.90
43946;DHT22;29599;51.196;4.428;2022-11-15T10:23:22;11.70;99.90
43946;DHT22;29599;51.196;4.428;2022-11-15T10:25:51;11.80;99.90
43946;DHT22;29599;51.196;4.428;2022-11-15T10:28:25;11.90;99.90
43946;DHT22;29599;51.196;4.428;2022-11-15T10:30:57;11.80;99.90
43946;DHT22;29599;51.196;4.428;2022-11-15T10:41:18;11.70;99.90
43946;DHT22;29599;51.196;4.428;2022-11-15T10:43:45;11.70;99.90
43946;DHT22;29599;51.196;4.428;2022-11-15T10:46:21;11.70;99.90
43946;DHT22;29599;51.196;4.428;2022-11-15T10:48:48;11.80;99.90
43946;DHT22;29599;51.196;4.428;2022-11-15T10:51:22;11.90;99.90
43946;DHT22;29599;51.196;4.428;2022-11-15T10:53:51;11.90;99.90
43946;DHT22;29599;51.196;4.428;2022-11-15T10:56:21;11.90;99.90
43946;DHT22;29599;51.196;4.428;2022-11-15T10:58:56;11.90;99.90
43946;DHT22;29599;51.196;4.428;2022-11-15T11:01:24;12.00;99.90
43946;DHT22;29599;51.196;4.428;2022-11-15T11:04:04;12.00;99.90
43946;DHT22;29599;51.196;4.428;2022-11-15T11:06:31;12.00;99.90
43946;DHT22;29599;51.196;4.428;2022-11-15T11:09:23;12.00;99.90
43946;DHT22;29599;51.196;4.428;2022-11-15T11:11:52;11.90;99.90
43946;DHT22;29599;51.196;4.428;2022-11-15T11:14:27;12.00;99.90
43946;DHT22;29599;51.196;4.428;2022-11-15T11:17:23;11.90;99.90
43946;DHT22;29599;51.196;4.428;2022-11-15T11:22:55;11.90;99.90
43946;DHT22;29599;51.196;4.428;2022-11-15T11:33:21;11.90;99.90
43946;DHT22;29599;51.196;4.428;2022-11-15T11:36:11;11.90;99.90
43946;DHT22;29599;51.196;4.428;2022-11-15T11:41:51;12.00;99.90
43946;DHT22;29599;51.196;4.428;2022-11-15T11:44:49;12.00;99.90
43946;DHT22;29599;51.196;4.428;2022-11-15T11:47:23;12.00;99.90
43946;DHT22;29599;51.196;4.428;2022-11-15T11:49:52;11.90;99.90
43946;DHT22;29599;51.196;4.428;2022-11-15T11:55:45;11.90;99.90
43946;DHT22;29599;51.196;4.428;2022-11-15T12:00:46;11.90;99.90
43946;DHT22;29599;51.196;4.428;2022-11-15T12:03:52;11.90;99.90
43946;DHT22;29599;51.196;4.428;2022-11-15T12:06:42;11.90;99.90
43946;DHT22;29599;51.196;4.428;2022-11-15T12:12:32;12.00;99.90
43946;DHT22;29599;51.196;4.428;2022-11-15T12:17:28;12.00;99.90
43946;DHT22;29599;51.196;4.428;2022-11-15T12:20:05;12.00;99.90
43946;DHT22;29599;51.196;4.428;2022-11-15T12:22:59;12.00;99.90
43946;DHT22;29599;51.196;4.428;2022-11-15T12:25:40;12.00;99.90
43946;DHT22;29599;51.196;4.428;2022-11-15T12:33:41;12.00;99.90
43946;DHT22;29599;51.196;4.428;2022-11-15T12:38:57;12.00;99.90
43946;DHT22;29599;51.196;4.428;2022-11-15T12:41:26;12.00;99.90
43946;DHT22;29599;51.196;4.428;2022-11-15T12:43:52;12.00;99.90
43946;DHT22;29599;51.196;4.428;2022-11-15T12:46:22;12.00;99.90
43946;DHT22;29599;51.196;4.428;2022-11-15T12:48:59;12.00;99.90
43946;DHT22;29599;51.196;4.428;2022-11-15T13:02:41;12.10;99.90
43946;DHT22;29599;51.196;4.428;2022-11-15T13:17:52;12.10;99.90
43946;DHT22;29599;51.196;4.428;2022-11-15T13:20:30;12.20;99.90
43946;DHT22;29599;51.196;4.428;2022-11-15T13:23:15;12.20;99.90
43946;DHT22;29599;51.196;4.428;2022-11-15T13:30:53;12.20;99.90
43946;DHT22;29599;51.196;4.428;2022-11-15T13:33:37;12.30;99.90
43946;DHT22;29599;51.196;4.428;2022-11-15T13:38:41;12.30;99.90
43946;DHT22;29599;51.196;4.428;2022-11-15T13:41:18;12.30;99.90
43946;DHT22;29599;51.196;4.428;2022-11-15T13:43:45;12.30;99.90
43946;DHT22;29599;51.196;4.428;2022-11-15T13:46:22;12.40;99.90
43946;DHT22;29599;51.196;4.428;2022-11-15T13:49:07;12.40;99.90
43946;DHT22;29599;51.196;4.428;2022-11-15T13:51:50;12.40;99.90
43946;DHT22;29599;51.196;4.428;2022-11-15T13:54:30;12.30;99.90
43946;DHT22;29599;51.196;4.428;2022-11-15T13:57:03;12.40;99.90
43946;DHT22;29599;51.196;4.428;2022-11-15T13:59:57;12.40;99.90
43946;DHT22;29599;51.196;4.428;2022-11-15T14:02:31;12.40;99.90
43946;DHT22;29599;51.196;4.428;2022-11-15T14:05:19;12.30;99.90
43946;DHT22;29599;51.196;4.428;2022-11-15T14:07:57;12.30;99.90
43946;DHT22;29599;51.196;4.428;2022-11-15T14:10:34;12.40;99.90
43946;DHT22;29599;51.196;4.428;2022-11-15T14:13:02;12.30;99.90
43946;DHT22;29599;51.196;4.428;2022-11-15T14:15:32;12.40;99.90
43946;DHT22;29599;51.196;4.428;2022-11-15T14:17:58;12.40;99.90
43946;DHT22;29599;51.196;4.428;2022-11-15T14:20:28;12.40;99.90
43946;DHT22;29599;51.196;4.428;2022-11-15T14:22:59;12.40;99.90
43946;DHT22;29599;51.196;4.428;2022-11-15T14:25:27;12.40;99.90
43946;DHT22;29599;51.196;4.428;2022-11-15T14:28:12;12.40;99.90
43946;DHT22;29599;51.196;4.428;2022-11-15T14:30:40;12.40;99.90
43946;DHT22;29599;51.196;4.428;2022-11-15T14:35:54;12.40;99.90
43946;DHT22;29599;51.196;4.428;2022-11-15T14:38:23;12.40;99.90
43946;DHT22;29599;51.196;4.428;2022-11-15T14:40:49;12.40;99.90
43946;DHT22;29599;51.196;4.428;2022-11-15T14:43:15;12.40;99.90
43946;DHT22;29599;51.196;4.428;2022-11-15T14:45:41;12.40;99.90
43946;DHT22;29599;51.196;4.428;2022-11-15T14:48:06;12.40;99.90
43946;DHT22;29599;51.196;4.428;2022-11-15T14:50:33;12.40;99.90
43946;DHT22;29599;51.196;4.428;2022-11-15T14:52:59;12.40;99.90
43946;DHT22;29599;51.196;4.428;2022-11-15T14:55:30;12.40;99.90
43946;DHT22;29599;51.196;4.428;2022-11-15T14:57:58;12.30;99.90
43946;DHT22;29599;51.196;4.428;2022-11-15T15:00:24;12.30;99.90
43946;DHT22;29599;51.196;4.428;2022-11-15T15:02:52;12.20;99.90
43946;DHT22;29599;51.196;4.428;2022-11-15T15:05:20;12.20;99.90
43946;DHT22;29599;51.196;4.428;2022-11-15T15:07:47;12.20;99.90
43946;DHT22;29599;51.196;4.428;2022-11-15T15:10:14;12.20;99.90
43946;DHT22;29599;51.196;4.428;2022-11-15T15:12:40;12.10;99.90
43946;DHT22;29599;51.196;4.428;2022-11-15T15:15:08;12.10;99.90
43946;DHT22;29599;51.196;4.428;2022-11-15T15:17:37;12.10;99.90
43946;DHT22;29599;51.196;4.428;2022-11-15T15:20:02;12.10;99.90
43946;DHT22;29599;51.196;4.428;2022-11-15T15:22:29;12.00;99.90
43946;DHT22;29599;51.196;4.428;2022-11-15T15:24:55;12.00;99.90
43946;DHT22;29599;51.196;4.428;2022-11-15T15:27:21;12.00;99.90
43946;DHT22;29599;51.196;4.428;2022-11-15T15:29:46;12.00;99.90
43946;DHT22;29599;51.196;4.428;2022-11-15T15:32:12;11.90;99.90
43946;DHT22;29599;51.196;4.428;2022-11-15T15:34:38;11.90;99.90
43946;DHT22;29599;51.196;4.428;2022-11-15T15:37:24;12.00;99.90
43946;DHT22;29599;51.196;4.428;2022-11-15T15:39:56;12.00;99.90
43946;DHT22;29599;51.196;4.428;2022-11-15T15:42:23;12.00;99.90
43946;DHT22;29599;51.196;4.428;2022-11-15T15:44:49;12.00;99.90
43946;DHT22;29599;51.196;4.428;2022-11-15T15:47:18;12.00;99.90
43946;DHT22;29599;51.196;4.428;2022-11-15T15:49:44;11.90;99.90
43946;DHT22;29599;51.196;4.428;2022-11-15T15:52:10;11.90;99.90
43946;DHT22;29599;51.196;4.428;2022-11-15T15:54:37;11.90;99.90
43946;DHT22;29599;51.196;4.428;2022-11-15T15:57:03;11.90;99.90
43946;DHT22;29599;51.196;4.428;2022-11-15T15:59:29;11.90;99.90
43946;DHT22;29599;51.196;4.428;2022-11-15T16:01:54;11.90;99.90
43946;DHT22;29599;51.196;4.428;2022-11-15T16:04:20;11.90;99.90
43946;DHT22;29599;51.196;4.428;2022-11-15T16:06:45;11.90;99.90
43946;DHT22;29599;51.196;4.428;2022-11-15T16:09:14;11.90;99.90
43946;DHT22;29599;51.196;4.428;2022-11-15T16:11:40;11.90;99.90
43946;DHT22;29599;51.196;4.428;2022-11-15T16:14:07;11.90;99.90
43946;DHT22;29599;51.196;4.428;2022-11-15T16:16:33;11.80;99.90
43946;DHT22;29599;51.196;4.428;2022-11-15T16:18:59;11.80;99.90
43946;DHT22;29599;51.196;4.428;2022-11-15T16:21:26;11.80;99.90
43946;DHT22;29599;51.196;4.428;2022-11-15T16:23:52;11.80;99.90
43946;DHT22;29599;51.196;4.428;2022-11-15T16:26:24;11.80;99.90
43946;DHT22;29599;51.196;4.428;2022-11-15T16:28:50;11.80;99.90
43946;DHT22;29599;51.196;4.428;2022-11-15T16:31:16;11.70;99.90
43946;DHT22;29599;51.196;4.428;2022-11-15T16:33:44;11.80;99.90
43946;DHT22;29599;51.196;4.428;2022-11-15T16:36:24;11.80;99.90
43946;DHT22;29599;51.196;4.428;2022-11-15T16:38:50;11.80;99.90
43946;DHT22;29599;51.196;4.428;2022-11-15T16:41:17;11.80;99.90
43946;DHT22;29599;51.196;4.428;2022-11-15T16:43:48;11.80;99.90
43946;DHT22;29599;51.196;4.428;2022-11-15T16:48:43;11.70;99.90
43946;DHT22;29599;51.196;4.428;2022-11-15T16:51:09;11.70;99.90
43946;DHT22;29599;51.196;4.428;2022-11-15T16:53:35;11.70;99.90
43946;DHT22;29599;51.196;4.428;2022-11-15T16:56:01;11.80;99.90
43946;DHT22;29599;51.196;4.428;2022-11-15T16:58:26;11.80;99.90
43946;DHT22;29599;51.196;4.428;2022-11-15T17:00:53;11.80;99.90
43946;DHT22;29599;51.196;4.428;2022-11-15T17:03:21;11.80;99.90
43946;DHT22;29599;51.196;4.428;2022-11-15T17:05:48;11.70;99.90
43946;DHT22;29599;51.196;4.428;2022-11-15T17:08:13;11.80;99.90
43946;DHT22;29599;51.196;4.428;2022-11-15T17:10:39;11.80;99.90
43946;DHT22;29599;51.196;4.428;2022-11-15T17:13:12;11.80;99.90
43946;DHT22;29599;51.196;4.428;2022-11-15T17:15:38;11.80;99.90
43946;DHT22;29599;51.196;4.428;2022-11-15T17:18:04;11.70;99.90
43946;DHT22;29599;51.196;4.428;2022-11-15T17:20:31;11.80;99.90
43946;DHT22;29599;51.196;4.428;2022-11-15T17:22:57;11.80;99.90
43946;DHT22;29599;51.196;4.428;2022-11-15T17:25:22;11.70;99.90
43946;DHT22;29599;51.196;4.428;2022-11-15T17:27:48;11.70;99.90
43946;DHT22;29599;51.196;4.428;2022-11-15T17:30:15;11.70;99.90
43946;DHT22;29599;51.196;4.428;2022-11-15T17:32:41;11.70;99.90
43946;DHT22;29599;51.196;4.428;2022-11-15T17:35:08;11.70;99.90
43946;DHT22;29599;51.196;4.428;2022-11-15T17:37:34;11.70;99.90
43946;DHT22;29599;51.196;4.428;2022-11-15T17:40:00;11.80;99.90
43946;DHT22;29599;51.196;4.428;2022-11-15T17:42:25;11.80;99.90
43946;DHT22;29599;51.196;4.428;2022-11-15T17:44:51;11.80;99.90
43946;DHT22;29599;51.196;4.428;2022-11-15T17:47:17;11.80;99.90
43946;DHT22;29599;51.196;4.428;2022-11-15T17:49:42;11.80;99.90
43946;DHT22;29599;51.196;4.428;2022-11-15T17:52:08;11.80;99.90
43946;DHT22;29599;51.196;4.428;2022-11-15T17:54:34;11.80;99.90
43946;DHT22;29599;51.196;4.428;2022-11-15T17:56:59;11.80;99.90
43946;DHT22;29599;51.196;4.428;2022-11-15T17:59:25;11.80;99.90